Time;durP1;ratioP1;P1;durP2;ratioP2;P2;SDS_P1;SDS_P2;PMS_P1;PMS_P2;Temp;Humidity;BMP_temperature;BMP_pressure;BME280_temperature;BME280_humidity;BME280_pressure;Samples;Min_cycle;Max_cycle;Signal;HPM_P1;HPM_P2
2023/01/14 00:01:20;;;;;;;4.10;1.87;;;7.40;99.90;;;;;;6040778;23;20412;-76
2023/01/14 00:03:49;;;;;;;4.63;1.63;;;7.40;99.90;;;;;;6039365;23;20423;-76
2023/01/14 00:06:19;;;;;;;4.70;1.70;;;7.40;99.90;;;;;;6039363;23;20931;-76
2023/01/14 00:08:48;;;;;;;5.43;1.90;;;7.40;99.90;;;;;;6050409;23;20403;-76
2023/01/14 00:11:16;;;;;;;6.73;2.00;;;7.40;99.90;;;;;;6050374;23;20408;-76
2023/01/14 00:13:46;;;;;;;5.20;1.50;;;7.40;99.90;;;;;;6050382;23;20878;-76
2023/01/14 00:16:15;;;;;;;8.47;2.57;;;7.40;99.90;;;;;;6039502;23;20442;-76
2023/01/14 00:18:43;;;;;;;9.87;2.10;;;7.40;99.90;;;;;;6050189;23;20804;-76
2023/01/14 00:21:13;;;;;;;3.50;1.87;;;7.40;99.90;;;;;;6050327;23;20895;-76
2023/01/14 00:23:42;;;;;;;7.87;2.53;;;7.40;99.90;;;;;;6051443;23;20392;-76
2023/01/14 00:26:12;;;;;;;7.03;2.37;;;7.40;99.90;;;;;;6038999;23;20450;-76
2023/01/14 00:28:41;;;;;;;9.20;2.57;;;7.40;99.90;;;;;;6039164;23;20414;-76
2023/01/14 00:31:12;;;;;;;4.60;2.40;;;7.40;99.90;;;;;;6039451;23;20430;-76
2023/01/14 00:33:41;;;;;;;11.67;2.80;;;7.40;99.90;;;;;;6039420;23;20816;-76
2023/01/14 00:36:11;;;;;;;9.00;2.50;;;7.40;99.90;;;;;;6052997;23;20454;-76
2023/01/14 00:38:39;;;;;;;9.10;2.30;;;7.30;99.90;;;;;;6051770;23;20522;-76
2023/01/14 00:41:11;;;;;;;5.57;2.20;;;7.30;99.90;;;;;;6040864;23;20893;-75
2023/01/14 00:43:42;;;;;;;8.73;2.63;;;7.30;99.90;;;;;;6040733;23;20426;-76
2023/01/14 00:46:14;;;;;;;7.17;2.20;;;7.30;99.90;;;;;;6054900;23;20910;-76
2023/01/14 00:48:43;;;;;;;7.60;2.27;;;7.30;99.90;;;;;;6044966;23;20431;-76
2023/01/14 00:51:12;;;;;;;4.90;2.00;;;7.30;99.90;;;;;;6046469;23;20871;-76
2023/01/14 00:53:42;;;;;;;5.80;2.43;;;7.30;99.90;;;;;;6056055;23;20404;-76
2023/01/14 00:56:10;;;;;;;10.30;2.60;;;7.30;99.90;;;;;;6043811;23;20546;-76
2023/01/14 00:58:39;;;;;;;6.90;1.83;;;7.30;99.90;;;;;;6044640;23;20441;-76
2023/01/14 01:01:09;;;;;;;6.40;2.13;;;7.30;99.90;;;;;;6046102;23;20423;-75
2023/01/14 01:03:41;;;;;;;4.97;2.00;;;7.30;99.90;;;;;;6046989;23;20423;-76
2023/01/14 01:06:11;;;;;;;7.30;1.70;;;7.30;99.90;;;;;;6057944;23;20423;-76
2023/01/14 01:08:39;;;;;;;5.23;1.83;;;7.20;99.90;;;;;;6044110;23;20429;-76
2023/01/14 01:11:08;;;;;;;5.27;2.00;;;7.20;99.90;;;;;;6041267;23;20491;-76
2023/01/14 01:13:37;;;;;;;5.60;1.93;;;7.20;99.90;;;;;;6039578;23;20424;-76
2023/01/14 01:16:09;;;;;;;8.80;2.40;;;7.20;99.90;;;;;;6039082;23;20538;-75
2023/01/14 01:18:38;;;;;;;5.10;1.80;;;7.20;99.90;;;;;;6038859;23;20434;-76
2023/01/14 01:21:10;;;;;;;5.50;1.97;;;7.20;99.90;;;;;;6038922;23;20517;-76
2023/01/14 01:23:40;;;;;;;7.73;2.50;;;7.20;99.90;;;;;;6039077;23;20753;-75
2023/01/14 01:26:13;;;;;;;7.47;2.07;;;7.10;99.90;;;;;;6039208;23;20440;-75
2023/01/14 01:28:41;;;;;;;6.03;2.10;;;7.10;99.90;;;;;;6038892;23;20412;-75
2023/01/14 01:31:13;;;;;;;4.63;2.20;;;7.10;99.90;;;;;;6049880;23;20404;-75
2023/01/14 01:33:42;;;;;;;8.20;2.83;;;7.10;99.90;;;;;;6040564;23;20418;-76
2023/01/14 01:36:13;;;;;;;5.90;2.20;;;7.10;99.90;;;;;;6038632;23;20949;-75
2023/01/14 01:38:42;;;;;;;7.63;2.70;;;7.10;99.90;;;;;;6038787;23;20937;-75
2023/01/14 01:41:16;;;;;;;7.53;2.27;;;7.10;99.90;;;;;;6038541;23;20424;-76
2023/01/14 01:43:59;;;;;;;5.63;2.37;;;7.00;99.90;;;;;;6049714;23;20415;-75
2023/01/14 01:46:27;;;;;;;7.40;2.77;;;7.00;99.90;;;;;;6050199;23;20899;-76
2023/01/14 01:48:59;;;;;;;7.10;2.53;;;7.00;99.90;;;;;;6038272;23;20429;-75
2023/01/14 01:51:33;;;;;;;6.53;2.70;;;7.00;99.90;;;;;;6049772;23;20388;-75
2023/01/14 01:54:03;;;;;;;8.27;2.90;;;7.00;99.90;;;;;;6038773;23;20413;-76
2023/01/14 01:56:35;;;;;;;8.37;3.07;;;7.00;99.90;;;;;;6049335;23;20920;-75
2023/01/14 01:59:07;;;;;;;7.23;2.90;;;6.90;99.90;;;;;;6038340;23;20779;-75
2023/01/14 02:01:36;;;;;;;7.47;3.23;;;6.90;99.90;;;;;;6038347;23;20404;-75
2023/01/14 02:04:05;;;;;;;11.33;3.27;;;6.90;99.90;;;;;;6038317;23;20415;-76
2023/01/14 02:06:38;;;;;;;10.87;3.07;;;6.90;99.90;;;;;;6038074;23;20529;-76
2023/01/14 02:09:11;;;;;;;9.50;3.30;;;6.90;99.90;;;;;;6038433;23;20415;-75
2023/01/14 02:12:02;;;;;;;10.63;3.70;;;6.90;99.90;;;;;;6038585;23;20468;-76
2023/01/14 02:14:43;;;;;;;8.43;2.93;;;6.90;99.90;;;;;;6038358;23;20423;-76
2023/01/14 02:17:21;;;;;;;11.13;3.53;;;6.90;99.90;;;;;;6049603;23;20450;-75
2023/01/14 02:20:12;;;;;;;8.83;3.60;;;6.90;99.90;;;;;;6037790;23;20478;-75
2023/01/14 02:23:31;;;;;;;11.30;4.27;;;6.90;99.90;;;;;;6038263;23;20466;-75
2023/01/14 02:26:44;;;;;;;10.23;3.60;;;6.90;99.90;;;;;;6042725;23;20454;-75
2023/01/14 02:29:48;;;;;;;12.47;3.77;;;6.90;99.90;;;;;;6044631;23;20425;-75
2023/01/14 02:32:25;;;;;;;7.37;3.33;;;6.90;99.90;;;;;;6040520;23;20420;-75
2023/01/14 02:35:04;;;;;;;9.83;4.27;;;7.00;99.90;;;;;;6038724;23;20424;-75
2023/01/14 02:37:39;;;;;;;9.03;3.53;;;7.00;99.90;;;;;;6038228;23;20813;-76
2023/01/14 02:40:12;;;;;;;10.13;4.07;;;7.00;99.90;;;;;;6038309;23;20757;-76
2023/01/14 02:45:43;;;;;;;10.10;4.30;;;7.00;99.90;;;;;;6038297;23;20904;-75
2023/01/14 02:48:13;;;;;;;12.80;3.60;;;7.00;99.90;;;;;;6038369;23;20437;-75
2023/01/14 02:50:41;;;;;;;14.93;4.67;;;7.00;99.90;;;;;;6049522;23;20900;-75
2023/01/14 02:53:12;;;;;;;9.10;4.10;;;7.00;99.90;;;;;;6014732;23;20424;-75
2023/01/14 02:55:40;;;;;;;12.70;4.00;;;7.00;99.90;;;;;;6014526;23;20425;-75
2023/01/14 02:58:31;;;;;;;11.10;4.30;;;7.00;99.90;;;;;;6014679;23;20412;-75
2023/01/14 03:01:14;;;;;;;12.60;4.40;;;7.00;99.90;;;;;;6014509;23;20410;-75
2023/01/14 03:04:05;;;;;;;13.10;4.10;;;7.00;99.90;;;;;;6014591;23;20431;-76
2023/01/14 03:06:45;;;;;;;12.80;5.00;;;7.00;99.90;;;;;;6014358;23;20952;-75
2023/01/14 03:09:21;;;;;;;10.10;4.37;;;7.00;99.90;;;;;;6015008;23;20509;-75
2023/01/14 03:11:57;;;;;;;13.33;4.60;;;7.00;99.90;;;;;;6049397;23;20493;-75
2023/01/14 03:14:31;;;;;;;12.10;4.40;;;7.10;99.90;;;;;;6014349;23;20410;-75
2023/01/14 03:17:06;;;;;;;13.70;5.13;;;7.10;99.90;;;;;;6014532;23;20438;-75
2023/01/14 03:19:41;;;;;;;13.37;4.83;;;7.10;99.90;;;;;;6014163;23;20427;-74
2023/01/14 03:22:10;;;;;;;11.83;4.67;;;7.10;99.90;;;;;;6014289;23;20405;-75
2023/01/14 03:24:44;;;;;;;8.90;4.23;;;7.10;99.90;;;;;;6014383;23;20420;-75
2023/01/14 03:27:23;;;;;;;14.67;5.57;;;7.10;99.90;;;;;;6014341;23;20448;-75
2023/01/14 03:29:58;;;;;;;8.60;4.70;;;7.10;99.90;;;;;;6014523;23;20946;-75
2023/01/14 03:32:31;;;;;;;11.90;5.10;;;7.10;99.90;;;;;;6016612;23;20423;-74
2023/01/14 03:35:03;;;;;;;11.43;5.60;;;7.10;99.90;;;;;;6016389;23;20415;-74
2023/01/14 03:37:32;;;;;;;16.03;6.00;;;7.20;99.90;;;;;;6015725;23;20441;-75
2023/01/14 03:40:02;;;;;;;13.73;5.70;;;7.20;99.90;;;;;;6041215;23;20773;-76
2023/01/14 03:42:38;;;;;;;10.53;5.20;;;7.20;99.90;;;;;;6051072;23;20819;-75
2023/01/14 03:45:11;;;;;;;10.77;5.00;;;7.20;99.90;;;;;;6015797;23;20421;-74
2023/01/14 03:47:42;;;;;;;11.20;4.60;;;7.20;99.90;;;;;;6015680;23;20436;-74
2023/01/14 03:50:14;;;;;;;14.30;5.27;;;7.20;99.90;;;;;;6050612;23;20418;-75
2023/01/14 03:53:07;;;;;;;14.63;5.73;;;7.20;99.90;;;;;;6050814;23;20838;-75
2023/01/14 03:55:41;;;;;;;16.13;4.30;;;7.20;99.90;;;;;;6051185;23;20826;-76
2023/01/14 03:58:15;;;;;;;11.57;4.30;;;7.20;99.90;;;;;;6015742;23;20415;-76
2023/01/14 04:00:48;;;;;;;13.73;4.40;;;7.20;99.90;;;;;;6050753;23;20421;-75
2023/01/14 04:03:19;;;;;;;13.00;4.30;;;7.20;99.90;;;;;;6015687;23;20419;-75
2023/01/14 04:05:48;;;;;;;10.63;4.30;;;7.20;99.90;;;;;;6050658;23;20427;-76
2023/01/14 04:08:20;;;;;;;14.40;4.30;;;7.20;99.90;;;;;;6050669;23;20407;-75
2023/01/14 04:10:48;;;;;;;12.60;4.23;;;7.20;99.90;;;;;;6015605;23;20441;-75
2023/01/14 04:16:04;;;;;;;15.17;4.67;;;7.30;99.90;;;;;;6050799;23;20453;-75
2023/01/14 04:18:33;;;;;;;12.10;3.83;;;7.30;99.90;;;;;;6050739;23;20406;-75
2023/01/14 04:21:02;;;;;;;13.30;3.97;;;7.20;99.90;;;;;;6015834;23;20523;-75
2023/01/14 04:23:30;;;;;;;9.90;4.60;;;7.20;99.90;;;;;;6050603;23;20407;-76
2023/01/14 04:25:58;;;;;;;13.07;4.43;;;7.20;99.90;;;;;;6050480;23;20534;-76
2023/01/14 04:28:27;;;;;;;14.33;4.23;;;7.30;99.90;;;;;;6054256;23;20407;-76
2023/01/14 04:30:56;;;;;;;12.83;3.93;;;7.20;99.90;;;;;;6052154;23;20814;-76
2023/01/14 04:33:24;;;;;;;10.87;3.80;;;7.30;99.90;;;;;;6052481;23;20401;-76
2023/01/14 04:35:53;;;;;;;15.57;4.57;;;7.30;99.90;;;;;;6016275;23;20940;-76
2023/01/14 04:38:23;;;;;;;11.73;3.60;;;7.30;99.90;;;;;;6015582;23;20936;-76
2023/01/14 04:40:51;;;;;;;16.00;4.80;;;7.30;99.90;;;;;;6050837;23;20462;-76
2023/01/14 04:43:18;;;;;;;14.23;4.50;;;7.30;99.90;;;;;;6014939;23;20421;-75
2023/01/14 04:45:50;;;;;;;15.27;4.27;;;7.30;99.90;;;;;;6050165;23;20426;-77
2023/01/14 04:48:19;;;;;;;14.20;4.50;;;7.30;99.90;;;;;;6040791;23;20432;-75
2023/01/14 04:50:47;;;;;;;11.63;3.90;;;7.30;99.90;;;;;;6050511;23;20463;-76
2023/01/14 04:53:20;;;;;;;12.87;4.00;;;7.30;99.90;;;;;;6015512;23;20906;-76
2023/01/14 04:55:51;;;;;;;16.03;4.63;;;7.20;99.90;;;;;;6050398;23;20746;-76
2023/01/14 04:58:20;;;;;;;14.87;4.27;;;7.20;99.90;;;;;;6015385;23;20419;-75
2023/01/14 05:00:50;;;;;;;11.40;4.17;;;7.20;99.90;;;;;;6050594;23;20439;-76
2023/01/14 05:03:19;;;;;;;12.00;4.03;;;7.20;99.90;;;;;;6050271;23;20431;-76
2023/01/14 05:05:47;;;;;;;11.30;3.90;;;7.20;99.90;;;;;;6049745;23;20424;-76
2023/01/14 05:08:18;;;;;;;12.77;4.17;;;7.20;99.90;;;;;;6015144;23;20473;-75
2023/01/14 05:10:49;;;;;;;19.43;5.23;;;7.20;99.90;;;;;;6015260;23;20744;-76
2023/01/14 05:13:18;;;;;;;14.67;5.93;;;7.20;99.90;;;;;;6040762;23;20400;-76
2023/01/14 05:15:47;;;;;;;13.43;4.60;;;7.20;99.90;;;;;;6015129;23;20442;-75
2023/01/14 05:18:16;;;;;;;14.30;4.97;;;7.20;99.90;;;;;;6049717;23;20956;-76
2023/01/14 05:20:45;;;;;;;18.63;5.60;;;7.20;99.90;;;;;;6049737;23;20431;-76
2023/01/14 05:23:15;;;;;;;16.97;6.20;;;7.20;99.90;;;;;;6015023;23;20426;-76
2023/01/14 05:25:46;;;;;;;14.00;6.00;;;7.20;99.90;;;;;;6015074;23;20422;-76
2023/01/14 05:28:16;;;;;;;18.77;6.40;;;7.20;99.90;;;;;;6050524;23;20904;-76
2023/01/14 05:30:45;;;;;;;19.60;6.07;;;7.20;99.90;;;;;;6040537;23;20402;-76
2023/01/14 05:33:13;;;;;;;15.60;6.20;;;7.20;99.90;;;;;;6050007;23;20396;-76
2023/01/14 05:35:42;;;;;;;14.73;5.80;;;7.20;99.90;;;;;;6014932;23;20498;-75
2023/01/14 05:38:10;;;;;;;19.43;7.40;;;7.10;99.90;;;;;;6050538;23;20401;-76
2023/01/14 05:40:39;;;;;;;15.40;6.73;;;7.10;99.90;;;;;;6052335;23;20443;-76
2023/01/14 05:45:55;;;;;;;14.00;6.70;;;7.10;99.90;;;;;;6053669;23;20456;-75
2023/01/14 05:48:25;;;;;;;14.40;6.27;;;7.10;99.90;;;;;;6052898;23;20474;-76
2023/01/14 05:50:55;;;;;;;16.17;7.13;;;7.10;99.90;;;;;;6017236;23;20502;-76
2023/01/14 05:53:23;;;;;;;14.97;6.80;;;7.00;99.90;;;;;;6052193;23;20937;-76
2023/01/14 05:55:53;;;;;;;15.93;7.67;;;7.00;99.90;;;;;;6052602;23;20428;-75
2023/01/14 05:58:23;;;;;;;17.20;7.30;;;7.00;99.90;;;;;;6017264;23;20414;-76
2023/01/14 06:06:26;;;;;;;17.07;7.90;;;6.90;99.90;;;;;;6049882;23;20471;-76
2023/01/14 06:08:56;;;;;;;16.73;7.80;;;6.90;99.90;;;;;;6050264;23;20748;-76
2023/01/14 06:11:26;;;;;;;18.70;6.97;;;6.90;99.90;;;;;;6049743;23;20398;-76
2023/01/14 06:13:57;;;;;;;17.83;7.70;;;6.90;99.90;;;;;;6014819;23;20461;-76
2023/01/14 06:16:27;;;;;;;15.80;7.97;;;6.90;99.90;;;;;;6015437;23;20440;-76
2023/01/14 06:18:57;;;;;;;19.60;6.73;;;6.90;99.90;;;;;;6015228;23;20487;-76
2023/01/14 06:21:29;;;;;;;15.87;7.10;;;6.90;99.90;;;;;;6014747;23;20438;-76
2023/01/14 06:23:57;;;;;;;20.77;7.20;;;6.80;99.90;;;;;;6050199;23;20381;-75
2023/01/14 06:26:27;;;;;;;19.07;7.57;;;6.80;99.90;;;;;;6015097;23;20462;-76
2023/01/14 06:28:59;;;;;;;16.33;6.60;;;6.80;99.90;;;;;;6014772;23;20755;-76
2023/01/14 06:31:27;;;;;;;14.10;6.80;;;6.80;99.90;;;;;;6014665;23;20910;-76
2023/01/14 06:33:56;;;;;;;16.00;7.43;;;6.70;99.90;;;;;;6014514;23;20448;-76
2023/01/14 06:36:25;;;;;;;11.73;6.93;;;6.70;99.90;;;;;;6014636;23;20452;-75
2023/01/14 06:38:53;;;;;;;20.30;7.30;;;6.70;99.90;;;;;;6049223;23;20406;-75
2023/01/14 06:41:21;;;;;;;19.43;7.13;;;6.70;99.90;;;;;;6049099;23;20977;-75
2023/01/14 06:43:50;;;;;;;17.10;8.87;;;6.70;99.90;;;;;;6049548;23;20428;-75
2023/01/14 06:46:19;;;;;;;16.03;7.10;;;6.70;99.90;;;;;;6049309;23;20828;-75
2023/01/14 06:48:48;;;;;;;16.87;7.13;;;6.60;99.90;;;;;;6049295;23;20414;-75
2023/01/14 06:51:17;;;;;;;19.27;8.23;;;6.60;99.90;;;;;;6049635;23;20406;-75
2023/01/14 06:53:46;;;;;;;18.73;8.40;;;6.60;99.90;;;;;;6014574;23;20472;-75
2023/01/14 06:56:16;;;;;;;17.30;7.17;;;6.60;99.90;;;;;;6049566;23;20943;-75
2023/01/14 06:58:48;;;;;;;23.03;8.93;;;6.60;99.90;;;;;;6049683;23;20424;-75
2023/01/14 07:01:16;;;;;;;13.20;7.00;;;6.60;99.90;;;;;;6049422;23;20422;-75
2023/01/14 07:03:46;;;;;;;19.93;7.80;;;6.50;99.90;;;;;;6039961;23;20472;-75
2023/01/14 07:06:14;;;;;;;16.50;8.30;;;6.50;99.90;;;;;;6015450;23;20454;-75
2023/01/14 07:08:42;;;;;;;14.37;7.37;;;6.50;99.90;;;;;;6050815;23;20403;-75
2023/01/14 07:11:12;;;;;;;22.30;7.80;;;6.50;99.90;;;;;;6042287;23;20412;-75
2023/01/14 07:13:40;;;;;;;21.27;10.00;;;6.50;99.90;;;;;;6016188;23;20420;-75
2023/01/14 07:16:08;;;;;;;19.93;8.60;;;6.50;99.90;;;;;;6041790;23;20436;-75
2023/01/14 07:18:37;;;;;;;14.73;7.57;;;6.50;99.90;;;;;;6016058;23;20418;-75
2023/01/14 07:21:06;;;;;;;18.43;8.10;;;6.50;99.90;;;;;;6041463;23;20437;-75
2023/01/14 07:23:34;;;;;;;19.57;8.90;;;6.50;99.90;;;;;;6016153;23;20426;-75
2023/01/14 07:26:02;;;;;;;19.33;9.17;;;6.50;99.90;;;;;;6050703;23;20434;-75
2023/01/14 07:28:32;;;;;;;18.67;9.07;;;6.50;99.90;;;;;;6050673;23;20402;-75
2023/01/14 07:31:05;;;;;;;22.03;9.37;;;6.50;99.90;;;;;;6050500;23;20405;-75
2023/01/14 07:33:33;;;;;;;24.77;10.20;;;6.50;99.90;;;;;;6016033;23;20427;-75
2023/01/14 07:36:01;;;;;;;21.90;9.93;;;6.50;99.90;;;;;;6016040;23;20448;-75
2023/01/14 07:38:30;;;;;;;16.30;9.23;;;6.50;99.90;;;;;;6050952;23;20409;-75
2023/01/14 07:40:59;;;;;;;21.67;9.63;;;6.50;99.90;;;;;;6050797;23;20437;-75
2023/01/14 07:43:27;;;;;;;23.40;10.97;;;6.50;99.90;;;;;;6041244;23;20929;-76
2023/01/14 07:45:59;;;;;;;17.57;9.27;;;6.50;99.90;;;;;;6015951;23;20468;-76
2023/01/14 07:48:27;;;;;;;25.07;11.87;;;6.50;99.90;;;;;;6048636;23;20423;-76
2023/01/14 07:50:55;;;;;;;20.83;10.23;;;6.50;99.90;;;;;;6016113;23;20459;-76
2023/01/14 07:53:23;;;;;;;22.10;10.13;;;6.50;99.90;;;;;;6015822;23;20516;-76
2023/01/14 07:55:53;;;;;;;23.37;10.23;;;6.50;99.90;;;;;;6050392;23;20426;-76
2023/01/14 07:58:23;;;;;;;18.00;9.73;;;6.50;99.90;;;;;;6015802;23;20851;-75
2023/01/14 08:00:51;;;;;;;26.63;10.50;;;6.50;99.90;;;;;;6015604;23;20515;-76
2023/01/14 08:03:19;;;;;;;22.13;10.77;;;6.50;99.90;;;;;;6050801;23;20496;-76
2023/01/14 08:05:47;;;;;;;24.73;11.30;;;6.50;99.90;;;;;;6040756;23;20449;-76
2023/01/14 08:08:16;;;;;;;26.73;11.00;;;6.50;99.90;;;;;;6050286;23;20416;-76
2023/01/14 08:10:44;;;;;;;25.50;10.93;;;6.50;99.90;;;;;;6015903;23;20435;-76
2023/01/14 08:13:14;;;;;;;21.00;10.80;;;6.50;99.90;;;;;;6016280;23;20802;-76
2023/01/14 08:15:42;;;;;;;25.97;12.20;;;6.50;99.90;;;;;;6054452;23;20464;-76
2023/01/14 08:18:10;;;;;;;23.50;11.17;;;6.50;99.90;;;;;;6047305;23;20416;-76
2023/01/14 08:20:38;;;;;;;26.57;11.97;;;6.50;99.90;;;;;;6057249;23;20408;-76
2023/01/14 08:23:07;;;;;;;22.53;11.30;;;6.50;99.90;;;;;;6021487;23;20436;-76
2023/01/14 08:25:35;;;;;;;25.70;13.63;;;6.50;99.90;;;;;;6018755;23;20428;-76
2023/01/14 08:28:05;;;;;;;24.03;12.20;;;6.50;99.90;;;;;;6043987;23;20426;-75
2023/01/14 08:30:34;;;;;;;28.67;12.57;;;6.50;99.90;;;;;;6042929;23;20428;-76
2023/01/14 08:33:03;;;;;;;27.03;13.50;;;6.50;99.90;;;;;;6017103;23;20416;-76
2023/01/14 08:35:31;;;;;;;22.07;11.87;;;6.50;99.90;;;;;;6016280;23;20419;-76
2023/01/14 08:37:59;;;;;;;28.00;11.33;;;6.60;99.90;;;;;;6015624;23;20428;-76
2023/01/14 08:40:27;;;;;;;25.00;13.90;;;6.50;99.90;;;;;;6015730;23;20429;-76
2023/01/14 08:42:55;;;;;;;21.33;11.73;;;6.60;99.90;;;;;;6015304;23;20450;-75
2023/01/14 08:45:23;;;;;;;27.70;12.50;;;6.60;99.90;;;;;;6016301;23;20426;-76
2023/01/14 08:47:53;;;;;;;28.07;11.70;;;6.60;99.90;;;;;;6050487;23;20415;-75
2023/01/14 08:50:21;;;;;;;24.83;11.50;;;6.60;99.90;;;;;;6041929;23;20495;-76
2023/01/14 08:52:49;;;;;;;25.90;13.50;;;6.60;99.90;;;;;;6050324;23;20402;-75
2023/01/14 08:55:17;;;;;;;24.63;11.10;;;6.60;99.90;;;;;;6040783;23;20414;-75
2023/01/14 08:57:45;;;;;;;25.43;11.50;;;6.60;99.90;;;;;;6015228;23;20448;-75
2023/01/14 09:00:14;;;;;;;28.00;12.13;;;6.70;99.90;;;;;;6049890;23;20406;-75
2023/01/14 09:02:42;;;;;;;27.70;11.77;;;6.70;99.90;;;;;;6049626;23;20435;-75
2023/01/14 09:05:13;;;;;;;24.60;10.37;;;6.70;99.90;;;;;;6015360;23;20901;-75
2023/01/14 09:18:43;;;;;;;29.03;10.47;;;6.80;99.90;;;;;;6049958;23;20698;-76
2023/01/14 09:21:12;;;;;;;22.93;9.60;;;6.80;99.90;;;;;;6015030;23;20748;-76
2023/01/14 09:23:41;;;;;;;24.30;8.80;;;6.80;99.90;;;;;;6049847;23;20403;-76
2023/01/14 09:26:09;;;;;;;24.60;10.07;;;6.80;99.90;;;;;;6049659;23;20423;-76
2023/01/14 09:28:37;;;;;;;23.60;9.00;;;6.90;99.90;;;;;;6049670;23;20406;-76
2023/01/14 09:31:05;;;;;;;24.03;9.30;;;6.90;99.90;;;;;;6015121;23;20413;-76
2023/01/14 09:33:33;;;;;;;20.33;8.10;;;6.90;99.90;;;;;;6015004;23;20417;-76
2023/01/14 09:36:02;;;;;;;26.30;8.37;;;6.90;99.90;;;;;;6015152;23;20929;-76
2023/01/14 09:38:31;;;;;;;22.33;8.97;;;6.90;99.90;;;;;;6014884;23;20417;-75
2023/01/14 09:40:59;;;;;;;23.77;9.67;;;7.00;99.90;;;;;;6049826;23;20738;-75
2023/01/14 09:43:42;;;;;;;22.33;7.27;;;7.00;99.90;;;;;;6040030;23;20514;-75
2023/01/14 09:46:12;;;;;;;21.40;7.53;;;7.00;99.90;;;;;;6014949;23;20770;-76
2023/01/14 09:48:40;;;;;;;18.17;6.73;;;7.00;99.90;;;;;;6014631;23;20445;-76
2023/01/14 09:51:25;;;;;;;15.50;7.03;;;7.00;99.90;;;;;;6040596;23;20401;-76
2023/01/14 09:54:03;;;;;;;20.07;7.57;;;7.10;99.90;;;;;;6015406;23;20406;-76
2023/01/14 09:56:36;;;;;;;16.87;6.57;;;7.10;99.90;;;;;;6049518;23;20502;-76
2023/01/14 09:59:11;;;;;;;21.33;6.80;;;7.10;99.90;;;;;;6014990;23;20425;-76
2023/01/14 10:01:48;;;;;;;22.67;7.50;;;7.10;99.90;;;;;;6014746;23;20908;-76
2023/01/14 10:04:40;;;;;;;25.03;7.00;;;7.10;99.90;;;;;;6014915;23;20423;-75
2023/01/14 10:07:11;;;;;;;16.37;6.47;;;7.10;99.90;;;;;;6039843;23;20433;-76
2023/01/14 10:09:46;;;;;;;17.57;6.40;;;7.10;99.90;;;;;;6049567;23;20390;-76
2023/01/14 10:12:19;;;;;;;19.03;6.37;;;7.10;99.90;;;;;;6050016;23;20434;-76
2023/01/14 10:14:54;;;;;;;19.00;6.07;;;7.10;99.90;;;;;;6049948;23;20388;-76
2023/01/14 10:17:26;;;;;;;16.70;6.27;;;7.20;99.90;;;;;;6049287;23;20428;-76
2023/01/14 10:19:54;;;;;;;19.03;7.00;;;7.20;99.90;;;;;;6039738;23;20436;-76
2023/01/14 10:22:34;;;;;;;19.70;6.93;;;7.20;99.90;;;;;;6049452;23;20438;-77
2023/01/14 10:25:10;;;;;;;15.70;5.13;;;7.20;99.90;;;;;;6014685;23;20407;-76
2023/01/14 10:27:38;;;;;;;19.40;5.77;;;7.20;99.90;;;;;;6049133;23;20425;-76
2023/01/14 10:30:18;;;;;;;15.37;5.30;;;7.20;99.90;;;;;;6015476;23;20423;-76
2023/01/14 10:32:49;;;;;;;17.30;5.60;;;7.20;99.90;;;;;;6049494;23;20391;-76
2023/01/14 10:35:23;;;;;;;17.70;5.30;;;7.10;99.90;;;;;;6014879;23;20492;-76
2023/01/14 10:37:52;;;;;;;17.37;6.87;;;7.20;99.90;;;;;;6049804;23;20753;-76
2023/01/14 10:40:25;;;;;;;18.97;5.67;;;7.10;99.90;;;;;;6014828;23;20413;-76
2023/01/14 10:42:55;;;;;;;14.60;6.00;;;7.10;99.90;;;;;;6016277;23;20490;-76
2023/01/14 10:45:23;;;;;;;16.00;5.70;;;7.10;99.90;;;;;;6016671;23;20428;-77
2023/01/14 10:47:56;;;;;;;18.70;5.90;;;7.10;99.90;;;;;;6051726;23;20445;-75
2023/01/14 10:50:28;;;;;;;13.70;5.37;;;7.10;99.90;;;;;;6035298;23;20943;-77
2023/01/14 10:53:13;;;;;;;12.40;4.97;;;7.10;99.90;;;;;;6049518;23;20386;-74
2023/01/14 10:55:49;;;;;;;13.43;5.40;;;7.10;99.90;;;;;;6038420;23;20420;-75
2023/01/14 10:58:21;;;;;;;17.70;6.17;;;7.10;99.90;;;;;;6049731;23;20392;-77
2023/01/14 11:00:51;;;;;;;16.57;5.60;;;7.10;99.90;;;;;;6038044;23;20412;-75
2023/01/14 11:03:24;;;;;;;13.30;4.80;;;7.10;99.90;;;;;;6037912;23;20522;-74
2023/01/14 11:05:58;;;;;;;17.17;5.60;;;7.10;99.90;;;;;;6049647;23;20416;-76
2023/01/14 11:08:33;;;;;;;17.43;5.00;;;7.10;99.90;;;;;;6038538;23;20411;-77
2023/01/14 11:11:06;;;;;;;17.13;5.70;;;7.00;99.90;;;;;;6049837;23;20416;-76
2023/01/14 11:13:41;;;;;;;17.97;5.40;;;7.00;99.90;;;;;;6039922;23;20397;-75
2023/01/14 11:16:32;;;;;;;19.13;6.33;;;7.00;99.90;;;;;;6039577;23;20443;-75
2023/01/14 11:19:02;;;;;;;11.87;5.20;;;7.00;99.90;;;;;;6039440;23;20940;-75
2023/01/14 11:21:34;;;;;;;15.00;5.07;;;7.00;99.90;;;;;;6037945;23;20427;-75
2023/01/14 11:24:06;;;;;;;12.17;4.20;;;7.00;99.90;;;;;;6049237;23;20417;-75
2023/01/14 11:26:37;;;;;;;15.10;5.30;;;7.00;99.90;;;;;;6048974;23;20424;-75
2023/01/14 11:29:15;;;;;;;12.77;5.13;;;7.00;99.90;;;;;;6049791;23;20479;-75
2023/01/14 11:31:46;;;;;;;10.67;4.40;;;7.00;99.90;;;;;;6039858;23;20402;-75
2023/01/14 11:34:24;;;;;;;11.63;4.80;;;7.00;99.90;;;;;;6048979;23;20859;-75
2023/01/14 11:37:03;;;;;;;11.63;4.60;;;7.00;99.90;;;;;;6039117;23;20448;-77
2023/01/14 11:39:32;;;;;;;13.57;4.70;;;7.00;99.90;;;;;;6038227;23;20504;-75
2023/01/14 11:42:03;;;;;;;13.10;4.60;;;7.00;99.90;;;;;;6038222;23;20772;-75
2023/01/14 11:44:31;;;;;;;13.33;5.07;;;7.00;99.90;;;;;;6049156;23;20889;-75
2023/01/14 11:47:12;;;;;;;12.97;5.00;;;7.00;99.90;;;;;;6037758;23;20442;-75
2023/01/14 11:49:40;;;;;;;12.47;5.07;;;7.00;99.90;;;;;;5984037;23;1450307;-76
2023/01/14 11:52:19;;;;;;;11.07;3.63;;;7.00;99.90;;;;;;6015929;23;20183;-76
2023/01/14 11:54:50;;;;;;;9.07;3.67;;;7.00;99.90;;;;;;6015851;23;20404;-77
2023/01/14 11:57:22;;;;;;;13.80;4.93;;;7.00;99.90;;;;;;6050833;23;20422;-76
2023/01/14 11:59:52;;;;;;;14.50;4.43;;;7.00;99.90;;;;;;6050924;23;20439;-77
2023/01/14 12:02:27;;;;;;;11.93;3.80;;;7.10;99.90;;;;;;6050514;23;20846;-77
2023/01/14 12:05:01;;;;;;;10.53;4.20;;;7.10;99.90;;;;;;6015959;23;20441;-77
2023/01/14 12:07:35;;;;;;;9.87;3.67;;;7.10;99.90;;;;;;6050369;23;20433;-77
2023/01/14 12:10:07;;;;;;;8.80;4.13;;;7.10;99.90;;;;;;6041306;23;20412;-76
2023/01/14 12:18:23;;;;;;;11.93;4.37;;;7.10;99.90;;;;;;6054420;23;20501;-77
2023/01/14 12:20:53;;;;;;;10.40;3.73;;;7.10;99.90;;;;;;6043210;23;20434;-77
2023/01/14 12:23:25;;;;;;;11.70;4.80;;;7.20;99.90;;;;;;6051304;23;20423;-76
2023/01/14 12:25:55;;;;;;;11.47;4.63;;;7.20;99.90;;;;;;6016005;23;20441;-77
2023/01/14 12:28:30;;;;;;;12.37;5.80;;;7.20;99.90;;;;;;6050621;23;20392;-76
2023/01/14 12:31:02;;;;;;;13.57;3.60;;;7.20;99.90;;;;;;6015775;23;20559;-77
2023/01/14 12:33:41;;;;;;;10.10;3.57;;;7.20;99.90;;;;;;6050227;23;20473;-77
2023/01/14 12:36:17;;;;;;;8.50;3.00;;;7.30;99.90;;;;;;6016303;23;20442;-77
2023/01/14 12:47:21;;;;;;;8.20;3.07;;;7.30;99.90;;;;;;6050006;23;20906;-77
2023/01/14 12:49:49;;;;;;;8.63;3.20;;;7.30;99.90;;;;;;6028684;23;20436;-77
2023/01/14 12:52:27;;;;;;;10.53;4.20;;;7.40;99.90;;;;;;6049975;23;20406;-77
2023/01/14 12:54:57;;;;;;;9.07;3.50;;;7.40;99.90;;;;;;6039068;23;20477;-77
2023/01/14 12:57:26;;;;;;;9.83;3.33;;;7.40;99.90;;;;;;6050185;23;20423;-76
2023/01/14 13:00:01;;;;;;;11.53;4.07;;;7.40;99.90;;;;;;6050649;23;20411;-77
2023/01/14 13:02:34;;;;;;;7.83;4.27;;;7.40;99.90;;;;;;6038799;23;20414;-77
2023/01/14 13:05:05;;;;;;;8.07;3.57;;;7.50;99.90;;;;;;6050701;23;20728;-77
2023/01/14 13:07:37;;;;;;;8.27;4.07;;;7.50;99.90;;;;;;6038719;23;20499;-77
2023/01/14 13:10:09;;;;;;;9.57;3.83;;;7.50;99.90;;;;;;6038821;23;20939;-76
2023/01/14 13:12:39;;;;;;;8.63;2.93;;;7.50;99.90;;;;;;6038921;23;20486;-75
2023/01/14 13:15:26;;;;;;;12.90;8.70;;;7.50;99.90;;;;;;6038756;23;20411;-77
2023/01/14 13:17:56;;;;;;;6.93;3.43;;;7.50;99.90;;;;;;6039940;23;20810;-76
2023/01/14 13:20:50;;;;;;;8.63;3.20;;;7.50;99.90;;;;;;6038745;23;20446;-76
2023/01/14 13:24:00;;;;;;;10.57;4.07;;;7.50;99.90;;;;;;6049959;23;20407;-76
2023/01/14 13:27:02;;;;;;;9.60;4.03;;;7.50;99.90;;;;;;5957759;24;20450;-77
2023/01/14 13:29:32;;;;;;;9.10;3.47;;;7.50;99.90;;;;;;5963131;24;20772;-76
2023/01/14 13:32:02;;;;;;;10.20;3.37;;;7.50;99.90;;;;;;5962910;24;20421;-77
2023/01/14 13:34:38;;;;;;;7.90;3.47;;;7.50;99.90;;;;;;5981870;23;20442;-77
2023/01/14 13:37:26;;;;;;;6.20;3.60;;;7.50;99.90;;;;;;6049824;23;20418;-76
2023/01/14 13:39:56;;;;;;;9.27;3.43;;;7.60;99.90;;;;;;6038553;23;20446;-76
2023/01/14 13:42:32;;;;;;;9.13;4.17;;;7.60;99.90;;;;;;6050027;23;20387;-76
2023/01/14 13:45:01;;;;;;;5.93;2.83;;;7.60;99.90;;;;;;6049821;23;20900;-76
2023/01/14 13:47:34;;;;;;;8.50;3.43;;;7.60;99.90;;;;;;6038583;23;20903;-76
2023/01/14 13:50:20;;;;;;;8.57;3.90;;;7.60;99.90;;;;;;6038325;23;20788;-76
2023/01/14 13:52:50;;;;;;;7.73;3.23;;;7.60;99.90;;;;;;6049448;23;20382;-77